sensor_id;sensor_type;location;lat;lon;timestamp;pressure;altitude;pressure_sealevel;temperature;humidity
69622;BME280;56841;55.964;37.674;2022-12-07T00:00:42;100714.22;;;-6.41;54.62
69622;BME280;56841;55.964;37.674;2022-12-07T00:03:08;100713.25;;;-6.37;54.33
69622;BME280;56841;55.964;37.674;2022-12-07T00:05:34;100714.31;;;-6.46;54.28
69622;BME280;56841;55.964;37.674;2022-12-07T00:07:59;100712.59;;;-6.45;54.28
69622;BME280;56841;55.964;37.674;2022-12-07T00:10:25;100712.47;;;-6.40;54.14
69622;BME280;56841;55.964;37.674;2022-12-07T00:12:51;100713.03;;;-6.26;54.46
69622;BME280;56841;55.964;37.674;2022-12-07T00:15:16;100712.94;;;-6.23;53.91
69622;BME280;56841;55.964;37.674;2022-12-07T00:17:43;100711.28;;;-6.26;53.90
69622;BME280;56841;55.964;37.674;2022-12-07T00:20:09;100710.44;;;-6.26;53.58
69622;BME280;56841;55.964;37.674;2022-12-07T00:22:35;100712.53;;;-6.42;53.68
69622;BME280;56841;55.964;37.674;2022-12-07T00:25:01;100705.06;;;-6.53;54.04
69622;BME280;56841;55.964;37.674;2022-12-07T00:27:27;100704.47;;;-6.65;54.20
69622;BME280;56841;55.964;37.674;2022-12-07T00:29:52;100712.19;;;-6.67;54.27
69622;BME280;56841;55.964;37.674;2022-12-07T00:32:18;100713.84;;;-6.63;54.38
69622;BME280;56841;55.964;37.674;2022-12-07T00:34:44;100712.19;;;-6.65;54.06
69622;BME280;56841;55.964;37.674;2022-12-07T00:37:09;100711.41;;;-6.71;54.16
69622;BME280;56841;55.964;37.674;2022-12-07T00:39:35;100708.88;;;-6.72;54.16
69622;BME280;56841;55.964;37.674;2022-12-07T00:42:01;100705.50;;;-6.74;53.94
69622;BME280;56841;55.964;37.674;2022-12-07T00:44:26;100718.56;;;-6.85;54.07
69622;BME280;56841;55.964;37.674;2022-12-07T00:46:52;100711.56;;;-6.78;54.21
69622;BME280;56841;55.964;37.674;2022-12-07T00:49:18;100721.16;;;-6.86;54.39
69622;BME280;56841;55.964;37.674;2022-12-07T00:51:43;100718.69;;;-6.91;54.18
69622;BME280;56841;55.964;37.674;2022-12-07T00:54:09;100716.84;;;-6.84;54.03
69622;BME280;56841;55.964;37.674;2022-12-07T00:56:35;100717.75;;;-6.87;54.44
69622;BME280;56841;55.964;37.674;2022-12-07T00:59:02;100716.09;;;-6.91;54.20
69622;BME280;56841;55.964;37.674;2022-12-07T01:01:31;100711.19;;;-7.00;54.09
69622;BME280;56841;55.964;37.674;2022-12-07T01:03:57;100715.53;;;-7.05;54.49
69622;BME280;56841;55.964;37.674;2022-12-07T01:06:24;100713.75;;;-7.00;54.83
69622;BME280;56841;55.964;37.674;2022-12-07T01:08:50;100707.50;;;-6.88;54.56
69622;BME280;56841;55.964;37.674;2022-12-07T01:11:18;100715.44;;;-6.99;54.46
69622;BME280;56841;55.964;37.674;2022-12-07T01:13:45;100712.91;;;-7.02;54.78
69622;BME280;56841;55.964;37.674;2022-12-07T01:16:14;100708.59;;;-7.00;54.38
69622;BME280;56841;55.964;37.674;2022-12-07T01:18:40;100718.88;;;-7.00;54.64
69622;BME280;56841;55.964;37.674;2022-12-07T01:21:13;100712.16;;;-7.07;54.52
69622;BME280;56841;55.964;37.674;2022-12-07T01:23:39;100704.44;;;-7.06;54.63
69622;BME280;56841;55.964;37.674;2022-12-07T01:26:08;100712.25;;;-7.12;54.39
69622;BME280;56841;55.964;37.674;2022-12-07T01:28:35;100712.34;;;-7.17;54.99
69622;BME280;56841;55.964;37.674;2022-12-07T01:31:06;100708.94;;;-7.17;54.84
69622;BME280;56841;55.964;37.674;2022-12-07T01:33:35;100705.44;;;-7.15;54.76
69622;BME280;56841;55.964;37.674;2022-12-07T01:36:24;100703.69;;;-7.12;54.74
69622;BME280;56841;55.964;37.674;2022-12-07T01:38:51;100711.44;;;-7.14;54.68
69622;BME280;56841;55.964;37.674;2022-12-07T01:41:18;100706.38;;;-7.17;54.53
69622;BME280;56841;55.964;37.674;2022-12-07T01:44:17;100703.13;;;-7.28;54.97
69622;BME280;56841;55.964;37.674;2022-12-07T01:46:46;100696.22;;;-7.23;54.91
69622;BME280;56841;55.964;37.674;2022-12-07T01:49:28;100699.72;;;-7.27;54.85
69622;BME280;56841;55.964;37.674;2022-12-07T01:52:04;100707.38;;;-7.26;55.34
69622;BME280;56841;55.964;37.674;2022-12-07T01:54:34;100706.69;;;-7.34;55.31
69622;BME280;56841;55.964;37.674;2022-12-07T01:57:00;100698.97;;;-7.34;55.90
69622;BME280;56841;55.964;37.674;2022-12-07T01:59:28;100704.84;;;-7.29;55.63
69622;BME280;56841;55.964;37.674;2022-12-07T02:01:54;100693.78;;;-7.31;55.77
69622;BME280;56841;55.964;37.674;2022-12-07T02:04:22;100702.22;;;-7.26;55.68
69622;BME280;56841;55.964;37.674;2022-12-07T02:06:48;100698.78;;;-7.25;56.13
69622;BME280;56841;55.964;37.674;2022-12-07T02:09:14;100698.16;;;-7.36;55.71
69622;BME280;56841;55.964;37.674;2022-12-07T02:11:40;100704.00;;;-7.29;56.12
69622;BME280;56841;55.964;37.674;2022-12-07T02:14:06;100703.31;;;-7.37;56.20
69622;BME280;56841;55.964;37.674;2022-12-07T02:30:07;100696.41;;;-7.35;56.24
69622;BME280;56841;55.964;37.674;2022-12-07T02:32:44;100681.94;;;-7.38;55.99
69622;BME280;56841;55.964;37.674;2022-12-07T02:35:25;100690.56;;;-7.42;56.10
69622;BME280;56841;55.964;37.674;2022-12-07T02:43:11;100688.97;;;-7.49;56.65
69622;BME280;56841;55.964;37.674;2022-12-07T02:45:41;100683.69;;;-7.40;56.30
69622;BME280;56841;55.964;37.674;2022-12-07T02:48:10;100686.25;;;-7.40;56.40
69622;BME280;56841;55.964;37.674;2022-12-07T02:50:37;100689.78;;;-7.46;56.29
69622;BME280;56841;55.964;37.674;2022-12-07T02:53:03;100695.78;;;-7.45;56.50
69622;BME280;56841;55.964;37.674;2022-12-07T02:55:34;100698.38;;;-7.48;56.19
69622;BME280;56841;55.964;37.674;2022-12-07T03:06:43;100684.94;;;-7.61;56.93
69622;BME280;56841;55.964;37.674;2022-12-07T03:09:32;100691.78;;;-7.63;56.93
69622;BME280;56841;55.964;37.674;2022-12-07T03:12:17;100681.56;;;-7.66;56.84
69622;BME280;56841;55.964;37.674;2022-12-07T03:14:53;100695.38;;;-7.72;57.02
69622;BME280;56841;55.964;37.674;2022-12-07T03:17:26;100686.84;;;-7.72;56.75
69622;BME280;56841;55.964;37.674;2022-12-07T03:19:56;100682.66;;;-7.78;57.08
69622;BME280;56841;55.964;37.674;2022-12-07T03:22:25;100692.84;;;-7.75;56.93
69622;BME280;56841;55.964;37.674;2022-12-07T03:24:58;100696.22;;;-7.71;57.00
69622;BME280;56841;55.964;37.674;2022-12-07T03:27:31;100697.09;;;-7.72;57.11
69622;BME280;56841;55.964;37.674;2022-12-07T03:30:05;100692.78;;;-7.70;57.01
69622;BME280;56841;55.964;37.674;2022-12-07T03:32:39;100694.50;;;-7.71;56.97
69622;BME280;56841;55.964;37.674;2022-12-07T03:35:18;100686.75;;;-7.69;57.33
69622;BME280;56841;55.964;37.674;2022-12-07T03:43:08;100682.78;;;-7.87;57.59
69622;BME280;56841;55.964;37.674;2022-12-07T03:45:42;100687.97;;;-7.90;57.86
69622;BME280;56841;55.964;37.674;2022-12-07T03:48:31;100687.25;;;-7.98;57.83
69622;BME280;56841;55.964;37.674;2022-12-07T03:56:25;100678.63;;;-7.93;58.71
69622;BME280;56841;55.964;37.674;2022-12-07T03:58:52;100682.84;;;-7.90;58.68
69622;BME280;56841;55.964;37.674;2022-12-07T04:01:19;100689.72;;;-7.92;58.65
69622;BME280;56841;55.964;37.674;2022-12-07T04:03:45;100690.66;;;-7.98;58.72
69622;BME280;56841;55.964;37.674;2022-12-07T04:06:11;100694.13;;;-8.00;58.99
69622;BME280;56841;55.964;37.674;2022-12-07T04:08:36;100688.19;;;-8.02;59.07
69622;BME280;56841;55.964;37.674;2022-12-07T04:11:02;100687.38;;;-8.06;59.15
69622;BME280;56841;55.964;37.674;2022-12-07T04:13:28;100688.50;;;-8.24;59.42
69622;BME280;56841;55.964;37.674;2022-12-07T04:15:53;100687.72;;;-8.29;59.40
69622;BME280;56841;55.964;37.674;2022-12-07T04:18:19;100684.41;;;-8.36;59.92
69622;BME280;56841;55.964;37.674;2022-12-07T04:20:46;100677.56;;;-8.35;60.09
69622;BME280;56841;55.964;37.674;2022-12-07T04:23:11;100682.69;;;-8.33;60.17
69622;BME280;56841;55.964;37.674;2022-12-07T04:25:37;100679.44;;;-8.45;60.47
69622;BME280;56841;55.964;37.674;2022-12-07T04:28:03;100680.44;;;-8.53;60.76
69622;BME280;56841;55.964;37.674;2022-12-07T04:30:29;100683.84;;;-8.53;60.73
69622;BME280;56841;55.964;37.674;2022-12-07T04:32:54;100683.75;;;-8.48;60.76
69622;BME280;56841;55.964;37.674;2022-12-07T04:35:20;100687.28;;;-8.55;60.97
69622;BME280;56841;55.964;37.674;2022-12-07T04:37:46;100678.00;;;-8.63;61.31
69622;BME280;56841;55.964;37.674;2022-12-07T04:40:11;100678.09;;;-8.70;61.56
69622;BME280;56841;55.964;37.674;2022-12-07T04:42:58;100682.41;;;-8.74;62.17
69622;BME280;56841;55.964;37.674;2022-12-07T04:45:48;100691.06;;;-8.81;62.33
69622;BME280;56841;55.964;37.674;2022-12-07T04:48:32;100682.47;;;-8.77;62.43
69622;BME280;56841;55.964;37.674;2022-12-07T05:01:07;100692.91;;;-8.94;63.20
69622;BME280;56841;55.964;37.674;2022-12-07T05:16:52;100686.41;;;-9.19;64.16
69622;BME280;56841;55.964;37.674;2022-12-07T05:19:38;100686.38;;;-9.18;64.20
69622;BME280;56841;55.964;37.674;2022-12-07T05:25:44;100682.19;;;-9.26;64.76
69622;BME280;56841;55.964;37.674;2022-12-07T05:28:10;100681.34;;;-9.27;64.86
69622;BME280;56841;55.964;37.674;2022-12-07T05:34:17;100688.16;;;-9.24;65.04
69622;BME280;56841;55.964;37.674;2022-12-07T05:40:24;100689.81;;;-9.22;65.05
69622;BME280;56841;55.964;37.674;2022-12-07T05:43:28;100683.00;;;-9.21;65.17
69622;BME280;56841;55.964;37.674;2022-12-07T05:46:14;100675.38;;;-9.26;65.32
69622;BME280;56841;55.964;37.674;2022-12-07T05:59:51;100671.13;;;-9.30;66.09
69622;BME280;56841;55.964;37.674;2022-12-07T06:05:39;100669.38;;;-9.23;66.04
69622;BME280;56841;55.964;37.674;2022-12-07T06:08:43;100671.97;;;-9.28;66.16
69622;BME280;56841;55.964;37.674;2022-12-07T06:11:09;100673.59;;;-9.19;66.16
69622;BME280;56841;55.964;37.674;2022-12-07T06:17:21;100666.00;;;-9.25;66.45
69622;BME280;56841;55.964;37.674;2022-12-07T06:19:47;100671.88;;;-9.19;66.47
69622;BME280;56841;55.964;37.674;2022-12-07T06:22:13;100675.34;;;-9.23;66.46
69622;BME280;56841;55.964;37.674;2022-12-07T06:24:39;100673.59;;;-9.19;66.46
69622;BME280;56841;55.964;37.674;2022-12-07T06:27:05;100671.75;;;-9.10;66.47
69622;BME280;56841;55.964;37.674;2022-12-07T06:29:31;100673.50;;;-9.13;66.37
69622;BME280;56841;55.964;37.674;2022-12-07T06:31:58;100671.78;;;-9.11;66.63
69622;BME280;56841;55.964;37.674;2022-12-07T06:34:25;100670.03;;;-9.08;66.45
69622;BME280;56841;55.964;37.674;2022-12-07T06:36:51;100667.44;;;-9.04;66.57
69622;BME280;56841;55.964;37.674;2022-12-07T06:39:19;100670.94;;;-9.12;66.52
69622;BME280;56841;55.964;37.674;2022-12-07T06:41:45;100654.69;;;-9.08;66.83
69622;BME280;56841;55.964;37.674;2022-12-07T06:44:11;100661.56;;;-9.11;67.03
69622;BME280;56841;55.964;37.674;2022-12-07T06:46:37;100660.72;;;-9.12;67.34
69622;BME280;56841;55.964;37.674;2022-12-07T06:49:04;100665.81;;;-9.09;67.24
69622;BME280;56841;55.964;37.674;2022-12-07T06:51:31;100666.66;;;-9.10;67.37
69622;BME280;56841;55.964;37.674;2022-12-07T06:53:56;100666.66;;;-9.08;67.61
69622;BME280;56841;55.964;37.674;2022-12-07T07:00:14;100662.13;;;-8.89;67.26
69622;BME280;56841;55.964;37.674;2022-12-07T07:02:39;100668.34;;;-9.09;68.13
69622;BME280;56841;55.964;37.674;2022-12-07T07:05:05;100666.56;;;-9.03;68.01
69622;BME280;56841;55.964;37.674;2022-12-07T07:07:31;100669.13;;;-9.02;68.20
69622;BME280;56841;55.964;37.674;2022-12-07T07:09:57;100677.47;;;-8.89;68.20
69622;BME280;56841;55.964;37.674;2022-12-07T07:12:22;100671.44;;;-8.84;68.07
69622;BME280;56841;55.964;37.674;2022-12-07T07:14:48;100663.66;;;-8.76;67.96
69622;BME280;56841;55.964;37.674;2022-12-07T07:17:14;100662.69;;;-8.67;67.92
69622;BME280;56841;55.964;37.674;2022-12-07T07:19:40;100664.31;;;-8.60;67.77
69622;BME280;56841;55.964;37.674;2022-12-07T07:22:06;100666.09;;;-8.68;67.93
69622;BME280;56841;55.964;37.674;2022-12-07T07:24:32;100667.13;;;-8.78;68.65
69622;BME280;56841;55.964;37.674;2022-12-07T07:26:58;100661.91;;;-8.72;68.93
69622;BME280;56841;55.964;37.674;2022-12-07T07:29:24;100660.16;;;-8.69;68.74
69622;BME280;56841;55.964;37.674;2022-12-07T07:31:49;100658.28;;;-8.56;68.28
69622;BME280;56841;55.964;37.674;2022-12-07T07:34:15;100660.75;;;-8.51;68.21
69622;BME280;56841;55.964;37.674;2022-12-07T07:36:41;100656.53;;;-8.54;68.48
69622;BME280;56841;55.964;37.674;2022-12-07T07:39:07;100660.72;;;-8.48;68.38
69622;BME280;56841;55.964;37.674;2022-12-07T07:41:32;100649.59;;;-8.44;68.15
69622;BME280;56841;55.964;37.674;2022-12-07T07:43:58;100648.53;;;-8.36;67.94
69622;BME280;56841;55.964;37.674;2022-12-07T07:46:24;100636.59;;;-8.35;67.74
69622;BME280;56841;55.964;37.674;2022-12-07T07:48:49;100649.34;;;-8.32;67.86
69622;BME280;56841;55.964;37.674;2022-12-07T07:51:15;100645.72;;;-8.19;67.25
69622;BME280;56841;55.964;37.674;2022-12-07T07:53:41;100644.00;;;-8.17;67.16
69622;BME280;56841;55.964;37.674;2022-12-07T07:56:07;100646.38;;;-8.06;66.62
69622;BME280;56841;55.964;37.674;2022-12-07T07:58:32;100644.56;;;-8.01;66.51
69622;BME280;56841;55.964;37.674;2022-12-07T08:01:08;100642.94;;;-8.05;66.29
69622;BME280;56841;55.964;37.674;2022-12-07T08:03:34;100645.63;;;-8.14;66.57
69622;BME280;56841;55.964;37.674;2022-12-07T08:06:02;100645.31;;;-7.94;66.36
69622;BME280;56841;55.964;37.674;2022-12-07T08:08:28;100644.31;;;-7.85;66.39
69622;BME280;56841;55.964;37.674;2022-12-07T08:10:53;100639.38;;;-7.96;66.08
69622;BME280;56841;55.964;37.674;2022-12-07T08:13:19;100640.13;;;-7.91;66.03
69622;BME280;56841;55.964;37.674;2022-12-07T08:15:47;100635.84;;;-7.89;66.08
69622;BME280;56841;55.964;37.674;2022-12-07T08:18:14;100624.63;;;-7.83;65.88
69622;BME280;56841;55.964;37.674;2022-12-07T08:20:41;100634.97;;;-7.88;66.23
69622;BME280;56841;55.964;37.674;2022-12-07T08:23:08;100632.50;;;-7.94;65.98
69622;BME280;56841;55.964;37.674;2022-12-07T08:25:34;100637.69;;;-7.97;66.17
69622;BME280;56841;55.964;37.674;2022-12-07T08:28:00;100630.69;;;-7.88;66.13
69622;BME280;56841;55.964;37.674;2022-12-07T08:30:27;100627.22;;;-7.87;65.85
69622;BME280;56841;55.964;37.674;2022-12-07T08:32:53;100622.59;;;-7.66;65.52
69622;BME280;56841;55.964;37.674;2022-12-07T08:35:19;100620.03;;;-7.66;65.00
69622;BME280;56841;55.964;37.674;2022-12-07T08:37:46;100620.59;;;-7.50;64.82
69622;BME280;56841;55.964;37.674;2022-12-07T08:40:13;100628.97;;;-7.41;64.49
69622;BME280;56841;55.964;37.674;2022-12-07T08:42:49;100616.75;;;-7.28;64.43
69622;BME280;56841;55.964;37.674;2022-12-07T08:45:17;100630.50;;;-7.32;64.20
69622;BME280;56841;55.964;37.674;2022-12-07T08:47:51;100629.88;;;-7.43;63.90
69622;BME280;56841;55.964;37.674;2022-12-07T08:50:18;100623.91;;;-7.44;63.96
69622;BME280;56841;55.964;37.674;2022-12-07T08:52:44;100618.53;;;-7.33;63.71
69622;BME280;56841;55.964;37.674;2022-12-07T08:55:13;100610.63;;;-7.22;63.18
69622;BME280;56841;55.964;37.674;2022-12-07T08:57:39;100604.00;;;-7.32;63.51
69622;BME280;56841;55.964;37.674;2022-12-07T09:00:06;100600.38;;;-7.22;63.55
69622;BME280;56841;55.964;37.674;2022-12-07T09:02:32;100597.25;;;-7.36;63.45
69622;BME280;56841;55.964;37.674;2022-12-07T09:04:58;100598.22;;;-7.44;63.80
69622;BME280;56841;55.964;37.674;2022-12-07T09:07:24;100594.72;;;-7.38;63.56
69622;BME280;56841;55.964;37.674;2022-12-07T09:09:50;100587.69;;;-7.30;63.23
69622;BME280;56841;55.964;37.674;2022-12-07T09:12:16;100581.63;;;-7.26;62.73
69622;BME280;56841;55.964;37.674;2022-12-07T09:14:42;100581.31;;;-7.10;62.53
69622;BME280;56841;55.964;37.674;2022-12-07T09:17:10;100580.31;;;-7.05;62.50
69622;BME280;56841;55.964;37.674;2022-12-07T09:19:37;100573.41;;;-7.01;61.54
69622;BME280;56841;55.964;37.674;2022-12-07T09:22:03;100573.78;;;-7.20;62.40
69622;BME280;56841;55.964;37.674;2022-12-07T09:24:31;100566.88;;;-7.16;62.11
69622;BME280;56841;55.964;37.674;2022-12-07T09:26:58;100573.63;;;-7.12;61.64
69622;BME280;56841;55.964;37.674;2022-12-07T09:29:24;100576.72;;;-6.96;61.39
69622;BME280;56841;55.964;37.674;2022-12-07T09:31:51;100570.31;;;-7.17;61.21
69622;BME280;56841;55.964;37.674;2022-12-07T09:34:17;100572.56;;;-7.02;61.62
69622;BME280;56841;55.964;37.674;2022-12-07T09:36:43;100567.16;;;-6.89;61.71
69622;BME280;56841;55.964;37.674;2022-12-07T09:39:09;100567.81;;;-6.81;61.33
69622;BME280;56841;55.964;37.674;2022-12-07T09:41:39;100564.28;;;-6.77;60.91
69622;BME280;56841;55.964;37.674;2022-12-07T09:44:13;100558.81;;;-6.62;60.38
69622;BME280;56841;55.964;37.674;2022-12-07T09:46:42;100561.41;;;-6.63;60.24
69622;BME280;56841;55.964;37.674;2022-12-07T09:49:14;100570.69;;;-6.58;60.01
69622;BME280;56841;55.964;37.674;2022-12-07T09:51:42;100561.06;;;-6.48;60.06
69622;BME280;56841;55.964;37.674;2022-12-07T09:54:15;100560.91;;;-6.42;59.22
69622;BME280;56841;55.964;37.674;2022-12-07T09:56:42;100561.91;;;-6.48;59.13
69622;BME280;56841;55.964;37.674;2022-12-07T09:59:18;100563.28;;;-6.34;59.10
69622;BME280;56841;55.964;37.674;2022-12-07T10:01:47;100553.81;;;-6.32;58.83
69622;BME280;56841;55.964;37.674;2022-12-07T10:06:41;100549.28;;;-6.23;58.43
69622;BME280;56841;55.964;37.674;2022-12-07T10:09:18;100548.44;;;-6.23;58.45
69622;BME280;56841;55.964;37.674;2022-12-07T10:14:29;100540.69;;;-6.22;58.10
69622;BME280;56841;55.964;37.674;2022-12-07T10:16:56;100536.41;;;-6.21;57.67
69622;BME280;56841;55.964;37.674;2022-12-07T10:19:30;100538.06;;;-6.18;57.73
69622;BME280;56841;55.964;37.674;2022-12-07T10:24:31;100542.59;;;-6.30;57.91
69622;BME280;56841;55.964;37.674;2022-12-07T10:26:57;100530.75;;;-6.01;57.88
69622;BME280;56841;55.964;37.674;2022-12-07T10:29:37;100529.78;;;-5.97;57.31
69622;BME280;56841;55.964;37.674;2022-12-07T10:34:42;100514.38;;;-5.99;57.16
69622;BME280;56841;55.964;37.674;2022-12-07T10:42:27;100514.44;;;-6.02;56.76
69622;BME280;56841;55.964;37.674;2022-12-07T10:45:16;100516.94;;;-5.99;56.95
69622;BME280;56841;55.964;37.674;2022-12-07T10:48:07;100513.25;;;-5.90;56.78
69622;BME280;56841;55.964;37.674;2022-12-07T10:51:09;100513.22;;;-6.20;57.33
69622;BME280;56841;55.964;37.674;2022-12-07T11:01:29;100510.19;;;-6.01;56.95
69622;BME280;56841;55.964;37.674;2022-12-07T11:04:35;100502.78;;;-6.13;56.95
69622;BME280;56841;55.964;37.674;2022-12-07T11:07:23;100501.03;;;-6.11;56.82
69622;BME280;56841;55.964;37.674;2022-12-07T11:15:26;100488.25;;;-6.14;57.30
69622;BME280;56841;55.964;37.674;2022-12-07T11:21:12;100474.81;;;-6.26;57.28
69622;BME280;56841;55.964;37.674;2022-12-07T11:23:59;100481.69;;;-6.26;57.56
69622;BME280;56841;55.964;37.674;2022-12-07T11:32:22;100475.38;;;-6.47;57.56
69622;BME280;56841;55.964;37.674;2022-12-07T11:35:08;100479.47;;;-6.40;57.78
69622;BME280;56841;55.964;37.674;2022-12-07T11:37:37;100472.03;;;-6.49;57.99
69622;BME280;56841;55.964;37.674;2022-12-07T11:42:46;100475.22;;;-6.41;57.76
69622;BME280;56841;55.964;37.674;2022-12-07T11:45:23;100473.38;;;-6.36;57.77
69622;BME280;56841;55.964;37.674;2022-12-07T11:48:03;100478.47;;;-6.34;57.58
69622;BME280;56841;55.964;37.674;2022-12-07T11:51:00;100466.69;;;-6.41;57.85
69622;BME280;56841;55.964;37.674;2022-12-07T11:53:45;100467.06;;;-6.57;58.46
69622;BME280;56841;55.964;37.674;2022-12-07T11:56:17;100466.19;;;-6.56;58.61
69622;BME280;56841;55.964;37.674;2022-12-07T12:04:24;100449.84;;;-6.53;58.61
69622;BME280;56841;55.964;37.674;2022-12-07T12:06:53;100451.75;;;-6.61;58.62
69622;BME280;56841;55.964;37.674;2022-12-07T12:09:33;100450.38;;;-6.73;59.08
69622;BME280;56841;55.964;37.674;2022-12-07T12:12:34;100444.34;;;-6.72;59.09
69622;BME280;56841;55.964;37.674;2022-12-07T12:15:23;100441.75;;;-6.72;59.08
69622;BME280;56841;55.964;37.674;2022-12-07T12:25:56;100432.97;;;-6.98;59.86
69622;BME280;56841;55.964;37.674;2022-12-07T12:33:55;100429.94;;;-7.13;60.29
69622;BME280;56841;55.964;37.674;2022-12-07T12:36:25;100426.69;;;-7.22;60.72
69622;BME280;56841;55.964;37.674;2022-12-07T12:39:08;100427.56;;;-7.23;60.82
69622;BME280;56841;55.964;37.674;2022-12-07T12:50:16;100430.28;;;-7.29;61.11
69622;BME280;56841;55.964;37.674;2022-12-07T12:57:35;100425.56;;;-7.47;62.13
69622;BME280;56841;55.964;37.674;2022-12-07T13:02:53;100418.19;;;-7.61;62.46
69622;BME280;56841;55.964;37.674;2022-12-07T13:05:26;100423.38;;;-7.64;62.60
69622;BME280;56841;55.964;37.674;2022-12-07T13:08:19;100430.13;;;-7.60;62.48
69622;BME280;56841;55.964;37.674;2022-12-07T13:10:47;100430.25;;;-7.66;62.93
69622;BME280;56841;55.964;37.674;2022-12-07T13:20:59;100432.19;;;-7.76;63.80
69622;BME280;56841;55.964;37.674;2022-12-07T13:31:35;100427.19;;;-7.82;64.67
69622;BME280;56841;55.964;37.674;2022-12-07T13:34:04;100428.97;;;-7.85;64.79
69622;BME280;56841;55.964;37.674;2022-12-07T13:36:38;100426.47;;;-7.90;64.93
69622;BME280;56841;55.964;37.674;2022-12-07T13:41:42;100419.13;;;-8.05;65.50
69622;BME280;56841;55.964;37.674;2022-12-07T13:44:15;100423.53;;;-8.14;65.92
69622;BME280;56841;55.964;37.674;2022-12-07T13:51:51;100415.28;;;-8.26;66.57
69622;BME280;56841;55.964;37.674;2022-12-07T13:54:18;100421.22;;;-8.26;66.55
69622;BME280;56841;55.964;37.674;2022-12-07T13:56:48;100422.22;;;-8.33;66.92
69622;BME280;56841;55.964;37.674;2022-12-07T14:01:45;100412.88;;;-8.34;66.99
69622;BME280;56841;55.964;37.674;2022-12-07T14:04:45;100423.91;;;-8.32;66.87
69622;BME280;56841;55.964;37.674;2022-12-07T14:07:26;100418.81;;;-8.33;66.88
69622;BME280;56841;55.964;37.674;2022-12-07T14:09:54;100413.00;;;-8.42;67.24
69622;BME280;56841;55.964;37.674;2022-12-07T14:12:21;100404.44;;;-8.39;67.13
69622;BME280;56841;55.964;37.674;2022-12-07T14:14:48;100419.91;;;-8.45;67.27
69622;BME280;56841;55.964;37.674;2022-12-07T14:17:19;100411.44;;;-8.49;67.43
69622;BME280;56841;55.964;37.674;2022-12-07T14:19:48;100419.16;;;-8.50;67.51
69622;BME280;56841;55.964;37.674;2022-12-07T14:22:35;100414.16;;;-8.56;67.54
69622;BME280;56841;55.964;37.674;2022-12-07T14:27:50;100420.84;;;-8.49;67.19
69622;BME280;56841;55.964;37.674;2022-12-07T14:30:18;100411.44;;;-8.49;67.43
69622;BME280;56841;55.964;37.674;2022-12-07T14:32:44;100413.31;;;-8.59;67.89
69622;BME280;56841;55.964;37.674;2022-12-07T14:35:16;100412.47;;;-8.57;67.91
69622;BME280;56841;55.964;37.674;2022-12-07T14:37:44;100406.47;;;-8.58;67.54
69622;BME280;56841;55.964;37.674;2022-12-07T14:40:24;100409.13;;;-8.63;67.76
69622;BME280;56841;55.964;37.674;2022-12-07T14:43:05;100411.75;;;-8.66;67.89
69622;BME280;56841;55.964;37.674;2022-12-07T14:45:34;100404.81;;;-8.59;67.64
69622;BME280;56841;55.964;37.674;2022-12-07T14:47:59;100400.53;;;-8.59;67.79
69622;BME280;56841;55.964;37.674;2022-12-07T14:50:25;100402.28;;;-8.61;67.87
69622;BME280;56841;55.964;37.674;2022-12-07T14:52:55;100398.84;;;-8.60;67.80
69622;BME280;56841;55.964;37.674;2022-12-07T14:55:28;100405.84;;;-8.68;67.86
69622;BME280;56841;55.964;37.674;2022-12-07T14:57:55;100403.22;;;-8.65;68.28
69622;BME280;56841;55.964;37.674;2022-12-07T15:00:23;100403.09;;;-8.59;67.72
69622;BME280;56841;55.964;37.674;2022-12-07T15:02:50;100413.56;;;-8.72;68.19
69622;BME280;56841;55.964;37.674;2022-12-07T15:05:17;100405.84;;;-8.69;67.97
69622;BME280;56841;55.964;37.674;2022-12-07T15:07:44;100412.56;;;-8.64;68.21
69622;BME280;56841;55.964;37.674;2022-12-07T15:10:26;100408.38;;;-8.68;68.28
69622;BME280;56841;55.964;37.674;2022-12-07T15:13:01;100408.38;;;-8.68;68.37
69622;BME280;56841;55.964;37.674;2022-12-07T15:15:50;100397.38;;;-8.73;68.42
69622;BME280;56841;55.964;37.674;2022-12-07T15:18:18;100387.97;;;-8.71;68.45
69622;BME280;56841;55.964;37.674;2022-12-07T15:20:45;100387.28;;;-8.82;69.18
69622;BME280;56841;55.964;37.674;2022-12-07T15:23:11;100394.88;;;-8.76;68.65
69622;BME280;56841;55.964;37.674;2022-12-07T15:25:41;100384.66;;;-8.77;68.57
69622;BME280;56841;55.964;37.674;2022-12-07T15:28:09;100385.41;;;-8.71;68.89
69622;BME280;56841;55.964;37.674;2022-12-07T15:30:37;100370.84;;;-8.69;68.78
69622;BME280;56841;55.964;37.674;2022-12-07T15:33:03;100373.34;;;-8.66;68.71
69622;BME280;56841;55.964;37.674;2022-12-07T15:35:29;100384.38;;;-8.62;68.38
69622;BME280;56841;55.964;37.674;2022-12-07T15:37:55;100375.97;;;-8.69;68.70
69622;BME280;56841;55.964;37.674;2022-12-07T15:40:21;100378.50;;;-8.67;68.61
69622;BME280;56841;55.964;37.674;2022-12-07T15:42:47;100377.56;;;-8.63;68.86
69622;BME280;56841;55.964;37.674;2022-12-07T15:45:12;100372.75;;;-8.80;69.15
69622;BME280;56841;55.964;37.674;2022-12-07T15:47:40;100378.63;;;-8.73;69.00
69622;BME280;56841;55.964;37.674;2022-12-07T15:50:09;100370.16;;;-8.77;69.33
69622;BME280;56841;55.964;37.674;2022-12-07T15:52:36;100370.06;;;-8.72;69.14
69622;BME280;56841;55.964;37.674;2022-12-07T15:55:02;100369.09;;;-8.67;69.21
69622;BME280;56841;55.964;37.674;2022-12-07T15:57:31;100371.97;;;-8.84;69.22
69622;BME280;56841;55.964;37.674;2022-12-07T15:59:59;100369.22;;;-8.73;69.21
69622;BME280;56841;55.964;37.674;2022-12-07T16:02:29;100367.44;;;-8.69;69.26
69622;BME280;56841;55.964;37.674;2022-12-07T16:04:56;100367.38;;;-8.65;68.96
69622;BME280;56841;55.964;37.674;2022-12-07T16:07:23;100370.25;;;-8.81;69.44
69622;BME280;56841;55.964;37.674;2022-12-07T16:09:50;100359.84;;;-8.74;69.54
69622;BME280;56841;55.964;37.674;2022-12-07T16:12:16;100353.78;;;-8.70;69.12
69622;BME280;56841;55.964;37.674;2022-12-07T16:14:43;100361.63;;;-8.77;69.58